Time;durP1;ratioP1;P1;durP2;ratioP2;P2;SDS_P1;SDS_P2;PMS_P1;PMS_P2;Temp;Humidity;BMP_temperature;BMP_pressure;BME280_temperature;BME280_humidity;BME280_pressure;Samples;Min_cycle;Max_cycle;Signal;HPM_P1;HPM_P2
2022/03/07 00:01:07;;;;;;;7.40;6.80;;;;;;;0.36;66.56;101743.53;5054190;28;20259;-84
2022/03/07 00:03:34;;;;;;;8.43;7.63;;;;;;;0.35;66.43;101719.53;5053939;28;20735;-84
2022/03/07 00:06:01;;;;;;;7.17;6.67;;;;;;;0.47;68.17;101705.47;5053975;28;20286;-84
2022/03/07 00:08:29;;;;;;;7.47;6.50;;;;;;;0.60;67.53;101710.31;5054310;28;20230;-84
2022/03/07 00:10:55;;;;;;;7.03;6.53;;;;;;;0.70;67.75;101696.16;5038697;28;20207;-85
2022/03/07 00:13:22;;;;;;;6.40;5.90;;;;;;;0.67;68.61;101678.03;5045869;28;20617;-84
2022/03/07 00:15:49;;;;;;;7.50;6.90;;;;;;;0.66;68.21;101682.31;5054070;28;20293;-84
2022/03/07 00:18:15;;;;;;;7.77;7.07;;;;;;;0.64;67.52;101681.34;5053811;28;20238;-84
2022/03/07 00:20:42;;;;;;;8.40;7.70;;;;;;;0.60;67.58;101694.91;5053854;28;20677;-84
2022/03/07 00:23:11;;;;;;;8.10;7.50;;;;;;;0.57;67.15;101708.47;5053641;28;20209;-84
2022/03/07 00:25:37;;;;;;;8.77;8.07;;;;;;;0.57;66.86;101703.31;5054021;28;20225;-84
2022/03/07 00:28:04;;;;;;;9.33;8.53;;;;;;;0.53;67.49;101714.28;5053788;28;20230;-84
2022/03/07 00:30:31;;;;;;;9.47;8.47;;;;;;;0.50;67.58;101705.59;5054103;28;20252;-84
2022/03/07 00:32:58;;;;;;;9.97;9.07;;;;;;;0.53;67.94;101692.88;5054277;28;20634;-84
2022/03/07 00:35:24;;;;;;;9.00;8.30;;;;;;;0.57;67.01;101702.47;5054503;28;20202;-84
2022/03/07 00:37:50;;;;;;;8.47;7.77;;;;;;;0.52;67.81;101696.28;5056812;28;20234;-84
2022/03/07 00:40:18;;;;;;;8.90;8.10;;;;;;;0.61;67.84;101696.63;5050969;28;20218;-84
2022/03/07 00:42:45;;;;;;;9.20;8.47;;;;;;;0.66;67.40;101697.72;5045580;28;20195;-84
2022/03/07 00:45:11;;;;;;;8.70;7.97;;;;;;;0.75;68.32;101703.25;5045527;28;20270;-84
2022/03/07 00:47:38;;;;;;;9.47;8.67;;;;;;;0.88;69.32;101681.47;5028954;28;20230;-84
2022/03/07 00:50:05;;;;;;;8.27;7.50;;;;;;;0.92;68.62;101679.91;5029246;28;20206;-85
2022/03/07 00:52:32;;;;;;;9.67;8.87;;;;;;;1.02;68.02;101684.63;5037700;28;20254;-85
2022/03/07 00:54:59;;;;;;;8.80;8.10;;;;;;;1.19;69.22;101683.59;5032861;28;20248;-85
2022/03/07 00:57:26;;;;;;;8.10;7.50;;;;;;;1.21;67.66;101693.94;5031684;28;20272;-84
2022/03/07 00:59:53;;;;;;;8.60;7.90;;;;;;;1.21;66.40;101722.25;5022324;28;20207;-85
2022/03/07 01:02:20;;;;;;;8.03;7.43;;;;;;;1.32;67.41;101738.09;5031096;28;20561;-84
2022/03/07 01:04:46;;;;;;;8.00;7.40;;;;;;;1.35;67.27;101722.78;5018251;28;20283;-85
2022/03/07 01:07:13;;;;;;;8.60;7.67;;;;;;;1.40;68.32;101695.53;5017954;28;20923;-84
2022/03/07 01:09:39;;;;;;;7.80;7.20;;;;;;;1.42;69.62;101673.31;5030793;28;20203;-84
2022/03/07 01:12:07;;;;;;;8.27;7.63;;;;;;;1.46;68.71;101675.19;5046395;28;20200;-85
2022/03/07 01:14:35;;;;;;;9.27;8.47;;;;;;;1.44;69.57;101671.66;5037764;28;20217;-84
2022/03/07 01:17:01;;;;;;;8.33;7.63;;;;;;;1.53;68.86;101659.16;5031794;28;20203;-85
2022/03/07 01:19:28;;;;;;;8.33;7.63;;;;;;;1.42;66.98;101690.44;5025037;28;20280;-85
2022/03/07 01:21:54;;;;;;;8.97;8.27;;;;;;;1.35;65.99;101733.94;5022141;28;20604;-84
2022/03/07 01:24:21;;;;;;;8.10;7.40;;;;;;;1.15;66.08;101743.44;5037006;28;20683;-85
2022/03/07 01:26:47;;;;;;;8.63;7.93;;;;;;;0.99;66.14;101746.19;5017253;28;20233;-85
2022/03/07 01:29:14;;;;;;;8.60;8.00;;;;;;;0.68;67.25;101723.47;5035679;28;20226;-84
2022/03/07 01:31:41;;;;;;;8.47;7.50;;;;;;;0.59;67.57;101700.84;5032135;28;20264;-84
2022/03/07 01:34:08;;;;;;;8.07;7.30;;;;;;;0.54;68.14;101692.06;5017257;28;20203;-84
2022/03/07 01:36:35;;;;;;;7.83;7.23;;;;;;;0.55;68.48;101676.69;5016747;28;20203;-84
2022/03/07 01:39:01;;;;;;;9.00;8.30;;;;;;;0.65;68.05;101672.81;5015800;28;20248;-84
2022/03/07 01:41:28;;;;;;;8.77;8.07;;;;;;;0.58;69.11;101663.13;5034933;28;20212;-84
2022/03/07 01:43:54;;;;;;;9.60;8.70;;;;;;;0.70;68.72;101653.34;5050412;28;20204;-84
2022/03/07 01:46:21;;;;;;;8.27;7.67;;;;;;;0.75;68.61;101622.69;5056239;28;20231;-85
2022/03/07 01:48:48;;;;;;;9.97;9.07;;;;;;;0.78;68.78;101659.66;5055001;28;20647;-85
2022/03/07 01:51:17;;;;;;;8.47;7.77;;;;;;;0.69;69.52;101648.13;5056525;28;20252;-84
2022/03/07 01:53:44;;;;;;;8.73;8.03;;;;;;;0.67;69.59;101626.63;5056447;28;20217;-85
2022/03/07 01:56:10;;;;;;;9.07;8.27;;;;;;;0.60;69.52;101635.81;5056223;28;20207;-85
2022/03/07 01:58:37;;;;;;;8.93;8.13;;;;;;;0.74;69.98;101621.81;5056575;28;20277;-84
2022/03/07 02:01:03;;;;;;;9.67;8.83;;;;;;;0.70;70.02;101622.50;5056602;28;20340;-85
2022/03/07 02:03:30;;;;;;;9.63;8.83;;;;;;;0.59;70.34;101605.78;5055734;28;20747;-85
2022/03/07 02:05:58;;;;;;;8.40;7.70;;;;;;;0.55;71.24;101606.47;5056260;28;20279;-85
2022/03/07 02:08:25;;;;;;;9.87;9.03;;;;;;;0.40;72.13;101581.03;5056306;28;20223;-84
2022/03/07 02:10:51;;;;;;;9.80;9.00;;;;;;;0.22;73.27;101537.53;5048884;28;20203;-84
2022/03/07 02:13:20;;;;;;;10.53;9.53;;;;;;;0.29;74.00;101525.78;5047753;28;20253;-84
2022/03/07 02:15:53;;;;;;;9.30;8.40;;;;;;;0.28;73.09;101501.81;5056229;28;20303;-84
2022/03/07 02:18:21;;;;;;;9.77;8.97;;;;;;;0.43;73.85;101498.97;5055597;28;20826;-84
2022/03/07 02:20:50;;;;;;;9.97;9.17;;;;;;;0.65;74.30;101492.09;5056103;28;20213;-85
2022/03/07 02:23:18;;;;;;;9.43;8.67;;;;;;;0.62;72.74;101500.56;5055760;28;20203;-84
2022/03/07 02:25:44;;;;;;;10.10;9.00;;;;;;;0.58;72.79;101511.53;5055976;28;20234;-84
2022/03/07 02:28:11;;;;;;;9.43;8.60;;;;;;;0.59;73.35;101514.19;5055450;28;20230;-84
2022/03/07 02:30:37;;;;;;;9.90;9.10;;;;;;;0.58;73.05;101522.69;5056157;28;20611;-85
2022/03/07 02:33:03;;;;;;;9.60;8.87;;;;;;;0.60;73.25;101512.47;5055951;28;20206;-84
2022/03/07 02:35:30;;;;;;;10.07;9.23;;;;;;;0.43;72.41;101516.94;5055761;28;20205;-85
2022/03/07 02:37:56;;;;;;;9.80;9.00;;;;;;;0.46;73.38;101504.25;5055890;28;20228;-85
2022/03/07 02:40:24;;;;;;;9.83;8.93;;;;;;;0.48;73.32;101505.19;5048726;28;20573;-85
2022/03/07 02:42:50;;;;;;;9.83;9.03;;;;;;;0.36;73.00;101508.13;5047385;28;20206;-84
2022/03/07 02:45:17;;;;;;;10.47;9.57;;;;;;;0.31;73.45;101499.34;5056727;28;20255;-84
2022/03/07 02:47:43;;;;;;;9.73;8.83;;;;;;;0.30;73.91;101483.91;5057038;28;20694;-85
2022/03/07 02:50:10;;;;;;;9.53;8.63;;;;;;;0.37;74.08;101475.63;5056655;28;20248;-84
2022/03/07 02:52:36;;;;;;;10.37;9.53;;;;;;;0.50;74.79;101459.00;5056262;28;20207;-84
2022/03/07 02:55:03;;;;;;;11.20;10.27;;;;;;;0.43;74.64;101457.00;5055576;28;20207;-84
2022/03/07 02:57:31;;;;;;;10.80;9.97;;;;;;;0.31;75.48;101455.69;5053824;28;20879;-84
2022/03/07 02:59:57;;;;;;;11.20;10.30;;;;;;;0.42;76.56;101424.41;5054247;28;20233;-84
2022/03/07 03:02:24;;;;;;;10.83;9.93;;;;;;;0.32;76.02;101411.25;5054694;28;20257;-84
2022/03/07 03:04:50;;;;;;;12.07;11.07;;;;;;;0.34;76.52;101403.59;5054390;28;20238;-85
2022/03/07 03:07:17;;;;;;;13.50;10.60;;;;;;;0.26;76.21;101412.69;5053771;28;20231;-84
2022/03/07 03:09:45;;;;;;;10.83;10.03;;;;;;;0.21;76.88;101396.25;5050741;28;20220;-84
2022/03/07 03:12:11;;;;;;;11.30;10.50;;;;;;;0.19;76.55;101388.47;5042441;28;20222;-84
2022/03/07 03:14:40;;;;;;;11.50;10.60;;;;;;;0.26;77.01;101392.13;5053472;28;20201;-85
2022/03/07 03:17:06;;;;;;;12.33;11.23;;;;;;;0.14;76.42;101398.56;5053497;28;20300;-85
2022/03/07 03:19:33;;;;;;;11.30;10.43;;;;;;;0.13;76.74;101380.53;5053522;28;20222;-84
2022/03/07 03:21:59;;;;;;;11.50;10.50;;;;;;;0.22;78.06;101365.50;5053627;28;20253;-84
2022/03/07 03:24:25;;;;;;;11.27;10.20;;;;;;;0.24;77.20;101360.41;5053854;28;20212;-84
2022/03/07 03:26:52;;;;;;;11.23;10.33;;;;;;;0.29;76.64;101376.88;5053578;28;20579;-84
2022/03/07 03:29:18;;;;;;;11.57;10.57;;;;;;;0.21;76.77;101391.97;5053269;28;20221;-84
2022/03/07 03:31:46;;;;;;;11.63;10.43;;;;;;;0.19;76.74;101385.91;5053376;28;20207;-84
2022/03/07 03:34:12;;;;;;;10.40;9.57;;;;;;;0.21;76.10;101402.25;5053736;28;20215;-84
2022/03/07 03:36:39;;;;;;;11.20;10.30;;;;;;;0.13;76.53;101403.63;5053232;28;20210;-85
2022/03/07 03:42:27;;;;;;;10.83;9.93;;;;;;;0.06;76.62;101393.94;5041827;28;20236;-84
2022/03/07 03:44:54;;;;;;;10.07;9.30;;;;;;;0.07;77.97;101368.34;5033880;28;20210;-84
2022/03/07 03:47:21;;;;;;;11.17;10.37;;;;;;;0.10;78.58;101353.06;5033032;28;20260;-84
2022/03/07 03:49:48;;;;;;;10.77;9.93;;;;;;;0.26;78.59;101335.66;5033431;28;20211;-84
2022/03/07 03:52:14;;;;;;;11.63;10.63;;;;;;;0.24;77.08;101358.72;5033075;28;20262;-85
2022/03/07 03:54:41;;;;;;;11.50;10.60;;;;;;;0.09;75.75;101394.94;5033025;28;20207;-84
2022/03/07 03:57:07;;;;;;;10.83;9.93;;;;;;;0.10;76.44;101390.66;5032795;28;20270;-84
2022/03/07 03:59:34;;;;;;;10.80;9.97;;;;;;;0.16;77.42;101368.69;5032778;28;20206;-84
2022/03/07 04:02:01;;;;;;;10.83;9.83;;;;;;;0.16;77.03;101370.41;5032890;28;20643;-85
2022/03/07 04:04:29;;;;;;;10.97;9.50;;;;;;;0.18;76.70;101381.59;5034251;28;20677;-84
2022/03/07 04:06:56;;;;;;;10.40;9.60;;;;;;;0.05;75.80;101399.91;5034342;28;20234;-84
2022/03/07 04:09:23;;;;;;;11.00;10.10;;;;;;;-0.04;75.96;101403.88;5034559;28;20214;-84
2022/03/07 04:11:49;;;;;;;10.80;9.90;;;;;;;-0.04;76.60;101391.03;5041954;28;20200;-84
2022/03/07 04:14:16;;;;;;;11.30;10.17;;;;;;;-0.11;77.11;101360.78;5051173;28;20723;-85
2022/03/07 04:16:43;;;;;;;11.23;10.33;;;;;;;-0.23;77.65;101344.94;5054276;28;20207;-85
2022/03/07 04:19:11;;;;;;;10.80;9.80;;;;;;;-0.34;77.54;101344.47;5053512;28;20239;-84
2022/03/07 04:21:40;;;;;;;11.07;10.07;;;;;;;-0.39;77.88;101340.88;5053713;28;20265;-84
2022/03/07 04:24:07;;;;;;;10.67;9.67;;;;;;;-0.49;78.90;101324.25;5054306;28;20217;-84
2022/03/07 04:26:34;;;;;;;11.07;10.17;;;;;;;-0.60;79.25;101316.09;5053461;28;20231;-84
2022/03/07 04:29:01;;;;;;;10.70;9.80;;;;;;;-0.69;79.78;101302.06;5053447;28;20280;-84
2022/03/07 04:31:27;;;;;;;10.90;10.00;;;;;;;-0.73;79.37;101295.03;5053384;28;20565;-85
2022/03/07 04:33:54;;;;;;;11.27;10.40;;;;;;;-0.76;79.34;101300.91;5053925;28;20236;-84
2022/03/07 04:36:20;;;;;;;10.07;9.27;;;;;;;-0.76;78.81;101297.47;5053708;28;20352;-85
2022/03/07 04:38:49;;;;;;;10.93;10.03;;;;;;;-0.88;79.19;101298.72;5053943;28;20226;-84
2022/03/07 04:41:15;;;;;;;11.20;10.20;;;;;;;-0.94;79.38;101298.47;5046629;28;20203;-85
2022/03/07 04:43:42;;;;;;;11.83;10.63;;;;;;;-1.00;79.95;101293.09;5045700;28;20204;-85
2022/03/07 04:46:09;;;;;;;10.67;9.77;;;;;;;-0.99;79.84;101287.16;5049944;28;20302;-85
2022/03/07 04:48:35;;;;;;;10.57;9.67;;;;;;;-1.02;79.97;101287.03;5044883;28;20223;-84
2022/03/07 04:51:02;;;;;;;10.80;9.90;;;;;;;-1.03;79.83;101288.72;5053299;28;20212;-84
2022/03/07 04:53:29;;;;;;;10.47;9.63;;;;;;;-1.03;79.55;101293.84;5053255;28;20263;-85
2022/03/07 04:55:57;;;;;;;9.97;9.07;;;;;;;-1.07;79.60;101293.63;5053170;28;20203;-84
2022/03/07 04:58:24;;;;;;;10.03;9.13;;;;;;;-1.09;79.58;101296.16;5052343;28;20227;-84
2022/03/07 05:00:52;;;;;;;9.27;8.40;;;;;;;-1.14;79.89;101292.50;5053101;28;20213;-84
2022/03/07 05:03:18;;;;;;;9.67;8.73;;;;;;;-1.15;80.02;101292.44;5053052;28;20215;-84
2022/03/07 05:05:45;;;;;;;8.97;8.27;;;;;;;-1.18;80.14;101287.22;5052828;28;20202;-83
2022/03/07 05:08:11;;;;;;;9.10;8.30;;;;;;;-1.17;80.19;101289.81;5052806;28;20305;-84
2022/03/07 05:10:38;;;;;;;8.30;7.60;;;;;;;-1.17;80.19;101297.50;5053719;28;20215;-84
2022/03/07 05:13:05;;;;;;;9.20;8.40;;;;;;;-1.15;79.09;101305.25;5053664;28;20207;-84
2022/03/07 05:15:32;;;;;;;8.80;8.00;;;;;;;-1.03;78.69;101331.38;5051355;28;20260;-83
2022/03/07 05:17:59;;;;;;;9.43;7.93;;;;;;;-0.98;78.16;101342.72;5042947;28;20338;-84
2022/03/07 05:20:26;;;;;;;8.67;7.87;;;;;;;-0.95;77.91;101350.56;5037480;28;20265;-85
2022/03/07 05:22:53;;;;;;;8.20;7.50;;;;;;;-0.94;78.22;101351.41;5036863;28;20214;-84
2022/03/07 05:25:21;;;;;;;9.17;7.63;;;;;;;-0.87;77.86;101362.00;5040071;28;20206;-83
2022/03/07 05:27:48;;;;;;;8.73;7.93;;;;;;;-0.89;78.01;101362.72;5040313;28;20298;-83
2022/03/07 05:30:18;;;;;;;8.60;7.80;;;;;;;-0.97;78.07;101364.97;5040869;28;20261;-82
2022/03/07 05:32:45;;;;;;;9.10;8.30;;;;;;;-0.94;77.26;101369.34;5040831;28;20189;-84
2022/03/07 05:35:11;;;;;;;8.80;7.97;;;;;;;-1.02;77.56;101380.13;5040700;28;20271;-83
2022/03/07 05:37:38;;;;;;;8.77;7.80;;;;;;;-1.09;77.51;101378.13;5039717;28;20279;-83
2022/03/07 05:40:07;;;;;;;7.90;7.20;;;;;;;-1.05;77.44;101372.34;5039985;28;20208;-83
2022/03/07 05:42:34;;;;;;;8.67;7.87;;;;;;;-0.95;77.22;101382.97;5039078;28;20328;-82
2022/03/07 05:45:00;;;;;;;8.00;7.30;;;;;;;-0.94;77.11;101388.16;5040345;28;20342;-82
2022/03/07 05:47:28;;;;;;;8.27;7.47;;;;;;;-0.85;76.42;101391.13;5046902;28;20285;-81
2022/03/07 05:49:55;;;;;;;8.00;7.30;;;;;;;-0.85;76.50;101403.94;5040723;28;20682;-82
2022/03/07 05:52:21;;;;;;;8.03;7.23;;;;;;;-0.89;76.38;101409.75;5040788;28;20211;-82
2022/03/07 05:54:48;;;;;;;8.33;7.63;;;;;;;-0.95;76.82;101401.81;5040604;28;20212;-81
2022/03/07 05:57:15;;;;;;;8.70;8.00;;;;;;;-0.89;76.63;101404.63;5041412;28;20228;-81
2022/03/07 05:59:41;;;;;;;8.50;7.60;;;;;;;-0.91;76.89;101405.34;5042739;28;20487;-81
2022/03/07 06:02:08;;;;;;;8.37;7.60;;;;;;;-0.81;77.03;101402.41;5041140;28;20211;-81
2022/03/07 06:04:36;;;;;;;8.07;7.37;;;;;;;-0.77;76.10;101419.66;5040808;28;20253;-81
2022/03/07 06:07:02;;;;;;;8.40;7.70;;;;;;;-0.78;75.75;101429.84;5040746;28;20231;-81
2022/03/07 06:09:29;;;;;;;8.17;7.47;;;;;;;-0.87;75.80;101438.00;5041519;28;20216;-82
2022/03/07 06:11:55;;;;;;;7.93;7.33;;;;;;;-0.86;75.89;101439.75;5039713;28;20675;-81
2022/03/07 06:14:22;;;;;;;8.57;7.80;;;;;;;-0.82;75.42;101437.38;5040264;28;20263;-80
2022/03/07 06:16:49;;;;;;;9.30;8.03;;;;;;;-0.83;76.13;101442.47;5045121;28;20564;-81
2022/03/07 06:19:15;;;;;;;9.00;8.23;;;;;;;-0.82;75.74;101445.06;5059293;28;20260;-80
2022/03/07 06:21:43;;;;;;;8.10;7.37;;;;;;;-0.81;75.13;101454.53;5060983;28;20672;-81
2022/03/07 06:24:09;;;;;;;8.13;7.43;;;;;;;-0.73;75.52;101453.97;5059209;28;20564;-81
2022/03/07 06:26:36;;;;;;;8.80;8.00;;;;;;;-0.69;75.66;101451.63;5059834;28;20227;-80
2022/03/07 06:29:03;;;;;;;7.37;6.73;;;;;;;-0.66;74.61;101464.56;5061337;28;20318;-80
2022/03/07 06:31:29;;;;;;;7.57;7.00;;;;;;;-0.66;75.39;101468.81;5047626;28;20199;-81
2022/03/07 06:33:56;;;;;;;7.23;6.60;;;;;;;-0.61;75.21;101477.59;5027829;28;20206;-80
2022/03/07 06:36:22;;;;;;;7.47;6.87;;;;;;;-0.60;75.55;101469.94;5036803;28;20542;-80
2022/03/07 06:38:50;;;;;;;7.87;7.17;;;;;;;-0.66;74.79;101462.00;5036130;28;20292;-80
2022/03/07 06:41:17;;;;;;;7.53;6.83;;;;;;;-0.69;73.89;101466.13;5031781;28;20203;-80
2022/03/07 06:43:43;;;;;;;7.53;6.93;;;;;;;-0.71;73.45;101475.44;5034033;28;20208;-80
2022/03/07 06:46:10;;;;;;;8.17;7.57;;;;;;;-0.69;73.31;101492.63;5042953;28;20661;-80
2022/03/07 06:48:36;;;;;;;7.93;7.13;;;;;;;-0.67;73.11;101498.72;5047976;28;20223;-81
2022/03/07 06:51:03;;;;;;;8.70;7.90;;;;;;;-0.65;73.19;101503.91;5034671;28;20205;-81
2022/03/07 06:53:30;;;;;;;8.27;7.50;;;;;;;-0.65;73.54;101506.47;5025352;28;20694;-81
2022/03/07 06:55:57;;;;;;;8.63;7.70;;;;;;;-0.60;73.34;101500.72;5030269;28;20204;-81
2022/03/07 06:58:24;;;;;;;7.13;6.53;;;;;;;-0.57;73.22;101509.38;5028809;28;20291;-81
2022/03/07 07:00:50;;;;;;;9.13;8.17;;;;;;;-0.56;73.11;101514.53;5038150;28;20200;-80
2022/03/07 07:03:17;;;;;;;6.90;6.30;;;;;;;-0.53;72.95;101521.53;5026360;28;20206;-81
2022/03/07 07:05:43;;;;;;;7.97;7.20;;;;;;;-0.53;72.75;101530.09;5032218;28;20208;-81
2022/03/07 07:08:10;;;;;;;9.47;8.43;;;;;;;-0.56;72.47;101536.75;5031026;28;20225;-81
2022/03/07 07:10:36;;;;;;;9.40;8.50;;;;;;;-0.55;72.72;101552.22;5035065;28;20213;-81
2022/03/07 07:13:04;;;;;;;8.77;7.87;;;;;;;-0.53;72.60;101550.59;5031608;28;20227;-81
2022/03/07 07:15:30;;;;;;;9.63;8.73;;;;;;;-0.64;73.18;101550.09;5035620;28;20209;-80
2022/03/07 07:17:57;;;;;;;9.57;8.53;;;;;;;-0.60;73.64;101540.88;5032362;28;20279;-80
2022/03/07 07:20:23;;;;;;;10.80;8.37;;;;;;;-0.56;73.92;101537.63;5030107;28;20672;-81
2022/03/07 07:22:49;;;;;;;10.40;9.43;;;;;;;-0.56;74.54;101526.50;5029365;28;20204;-80
2022/03/07 07:25:16;;;;;;;33.40;24.10;;;;;;;-0.58;75.11;101520.44;5028081;28;20204;-80
2022/03/07 07:27:42;;;;;;;12.60;11.30;;;;;;;-0.58;75.26;101511.03;5029932;28;20218;-80
2022/03/07 07:30:11;;;;;;;13.23;11.57;;;;;;;-0.57;75.57;101497.44;5024673;28;20201;-79
2022/03/07 07:32:39;;;;;;;14.73;13.33;;;;;;;-0.58;75.86;101494.78;5025947;28;20208;-80
2022/03/07 07:35:07;;;;;;;12.63;11.53;;;;;;;-0.56;76.08;101485.47;5025996;28;20231;-79
2022/03/07 07:37:33;;;;;;;13.27;12.17;;;;;;;-0.54;76.58;101469.34;5025221;28;20221;-79
2022/03/07 07:40:00;;;;;;;11.77;10.37;;;;;;;-0.46;76.62;101473.09;5022956;28;20199;-79
2022/03/07 07:42:26;;;;;;;11.83;10.67;;;;;;;-0.41;77.06;101469.03;5021983;28;20204;-84
2022/03/07 07:45:12;;;;;;;14.73;10.93;;;;;;;-0.29;77.60;101460.13;5017718;28;20690;-85
2022/03/07 07:47:40;;;;;;;11.07;9.90;;;;;;;-0.22;77.50;101460.44;5043439;28;20245;-84
2022/03/07 07:50:08;;;;;;;11.73;10.73;;;;;;;-0.12;76.94;101460.81;5036885;28;20208;-84
2022/03/07 07:52:35;;;;;;;11.50;10.50;;;;;;;0.02;76.51;101474.19;5027932;28;20212;-84
2022/03/07 07:55:04;;;;;;;11.70;10.57;;;;;;;0.16;76.00;101489.38;5028305;28;20488;-85
2022/03/07 07:57:31;;;;;;;12.03;10.50;;;;;;;0.15;75.52;101504.69;5031058;28;20217;-85
2022/03/07 07:59:57;;;;;;;12.33;11.13;;;;;;;0.06;75.40;101510.34;5030607;28;20209;-85
2022/03/07 08:02:24;;;;;;;12.83;11.63;;;;;;;0.04;76.33;101503.38;5033869;28;20258;-85
2022/03/07 08:04:52;;;;;;;13.73;11.70;;;;;;;0.11;76.42;101498.56;5033157;28;20204;-83
2022/03/07 08:07:19;;;;;;;12.50;11.50;;;;;;;0.12;75.92;101502.88;5014887;28;20289;-83
2022/03/07 08:09:45;;;;;;;12.90;11.80;;;;;;;0.13;76.66;101494.34;5030690;28;20207;-83
2022/03/07 08:12:17;;;;;;;12.57;11.47;;;;;;;0.19;76.69;101492.03;5027937;28;20205;-84
2022/03/07 08:14:44;;;;;;;13.13;11.90;;;;;;;0.27;77.00;101489.78;5014655;28;20790;-84
2022/03/07 08:17:20;;;;;;;13.13;12.03;;;;;;;0.37;77.23;101481.63;5038674;28;20666;-85
2022/03/07 08:19:46;;;;;;;13.00;11.73;;;;;;;0.46;76.58;101475.13;5020989;28;20213;-85
2022/03/07 08:22:14;;;;;;;14.60;13.10;;;;;;;0.49;76.70;101475.22;5031407;28;20259;-85
2022/03/07 08:24:41;;;;;;;12.40;11.17;;;;;;;0.47;77.10;101482.84;5035608;28;20207;-85
2022/03/07 08:27:07;;;;;;;13.03;11.93;;;;;;;0.52;76.90;101470.22;5015173;28;20268;-84
2022/03/07 08:29:34;;;;;;;13.07;11.93;;;;;;;0.56;76.64;101467.81;5020335;28;20279;-85
2022/03/07 08:32:00;;;;;;;15.33;12.40;;;;;;;0.71;76.86;101467.50;5024130;28;20279;-85
2022/03/07 08:34:27;;;;;;;14.03;12.73;;;;;;;0.68;77.09;101475.13;5034616;28;20207;-84
2022/03/07 08:36:53;;;;;;;13.63;12.33;;;;;;;0.60;76.83;101476.53;5028522;28;20199;-85
2022/03/07 08:39:21;;;;;;;14.60;13.30;;;;;;;0.61;77.16;101467.09;5023100;28;20208;-85
2022/03/07 08:41:47;;;;;;;14.17;12.90;;;;;;;0.65;77.21;101472.41;5028444;28;20204;-85
2022/03/07 08:44:14;;;;;;;13.50;12.20;;;;;;;0.69;77.47;101471.72;5021866;28;20201;-85
2022/03/07 08:46:41;;;;;;;14.03;12.53;;;;;;;0.74;76.91;101475.34;5044697;28;20205;-85
2022/03/07 08:49:08;;;;;;;12.57;11.47;;;;;;;0.77;76.53;101474.56;5021338;28;20259;-85
2022/03/07 08:51:34;;;;;;;13.53;12.40;;;;;;;0.92;76.83;101471.72;5033600;28;20200;-86
2022/03/07 08:54:01;;;;;;;16.77;12.20;;;;;;;1.08;76.80;101476.59;5034778;28;20201;-86
2022/03/07 08:56:29;;;;;;;13.87;12.50;;;;;;;1.15;77.06;101483.72;5029103;28;20209;-86
2022/03/07 08:58:55;;;;;;;13.90;12.53;;;;;;;1.04;76.33;101494.44;5028993;28;20284;-85
2022/03/07 09:01:22;;;;;;;13.53;12.17;;;;;;;1.05;76.41;101491.03;5031391;28;20271;-85
2022/03/07 09:03:49;;;;;;;16.47;11.60;;;;;;;1.07;76.42;101485.13;5028046;28;20277;-83
2022/03/07 09:06:15;;;;;;;14.73;13.23;;;;;;;1.11;77.12;101491.25;5037823;28;20491;-83
2022/03/07 09:08:42;;;;;;;14.53;13.20;;;;;;;1.22;77.49;101489.06;5034016;28;20229;-84
2022/03/07 09:11:08;;;;;;;14.63;13.30;;;;;;;1.30;77.11;101485.94;5033256;28;20203;-81
2022/03/07 09:13:36;;;;;;;15.53;14.10;;;;;;;1.33;77.28;101480.06;5020197;28;20674;-86
2022/03/07 09:16:02;;;;;;;14.70;13.37;;;;;;;1.37;76.91;101474.19;5037356;28;20622;-86
2022/03/07 09:18:29;;;;;;;13.53;12.13;;;;;;;1.38;76.19;101478.50;5046051;28;20237;-84
2022/03/07 09:20:56;;;;;;;15.30;13.90;;;;;;;1.41;77.04;101486.34;5040143;28;20626;-83
2022/03/07 09:23:23;;;;;;;13.87;12.47;;;;;;;1.56;77.12;101476.56;5039525;28;20204;-83
2022/03/07 09:25:49;;;;;;;14.33;13.07;;;;;;;1.71;77.25;101476.22;5040884;28;20549;-83
2022/03/07 09:28:16;;;;;;;13.80;12.60;;;;;;;1.84;75.93;101487.81;5040871;28;20231;-82
2022/03/07 09:30:44;;;;;;;13.93;12.73;;;;;;;1.90;75.95;101507.72;5040651;28;20205;-82
2022/03/07 09:33:10;;;;;;;14.10;12.60;;;;;;;1.87;74.91;101512.78;5040418;28;20232;-83
2022/03/07 09:35:37;;;;;;;14.20;12.97;;;;;;;1.93;75.73;101506.13;5040531;28;20679;-82
2022/03/07 09:38:03;;;;;;;12.90;11.80;;;;;;;2.05;75.94;101510.81;5040444;28;20275;-83
2022/03/07 09:40:30;;;;;;;12.77;11.70;;;;;;;2.00;74.19;101527.81;5039615;28;20266;-83
2022/03/07 09:42:56;;;;;;;13.47;12.37;;;;;;;2.06;74.94;101527.13;5037967;28;20209;-84
2022/03/07 09:45:23;;;;;;;13.10;11.90;;;;;;;2.10;75.59;101522.16;5039583;28;20277;-81
2022/03/07 09:47:51;;;;;;;13.90;12.70;;;;;;;2.21;75.04;101529.38;5050267;28;20274;-82
2022/03/07 09:50:19;;;;;;;12.50;11.43;;;;;;;2.28;74.68;101541.59;5060024;28;20207;-80
2022/03/07 09:52:47;;;;;;;13.13;12.03;;;;;;;2.25;73.60;101559.56;5059840;28;20319;-82
2022/03/07 09:55:16;;;;;;;12.90;11.90;;;;;;;2.22;74.11;101564.59;5059750;28;20203;-81
2022/03/07 09:57:43;;;;;;;13.43;11.43;;;;;;;2.29;73.77;101567.41;5060967;28;20221;-81
2022/03/07 10:00:11;;;;;;;12.97;11.67;;;;;;;2.45;73.47;101573.94;5062435;28;20208;-82
2022/03/07 10:02:37;;;;;;;12.30;11.17;;;;;;;2.52;72.67;101563.03;5061325;28;20205;-81
2022/03/07 10:05:06;;;;;;;11.10;10.10;;;;;;;2.57;71.72;101604.41;5060053;28;20218;-82
2022/03/07 10:07:44;;;;;;;14.07;12.77;;;;;;;2.55;72.50;101612.06;5058620;28;20259;-81
2022/03/07 10:10:10;;;;;;;13.63;12.23;;;;;;;2.62;72.86;101596.81;5058298;28;20292;-82
2022/03/07 10:12:44;;;;;;;12.23;11.33;;;;;;;2.77;72.90;101597.31;5061071;28;20211;-81
2022/03/07 10:15:12;;;;;;;10.10;9.30;;;;;;;2.87;71.69;101603.63;5059171;28;20206;-81
2022/03/07 10:17:41;;;;;;;10.07;9.03;;;;;;;2.85;69.22;101629.34;5052214;28;20215;-83
2022/03/07 10:20:11;;;;;;;11.20;10.03;;;;;;;2.89;70.19;101654.41;5060430;28;20215;-81
2022/03/07 10:22:45;;;;;;;11.77;10.67;;;;;;;3.04;70.42;101654.03;5061123;28;20279;-81
2022/03/07 10:25:12;;;;;;;10.80;9.80;;;;;;;3.10;68.30;101672.28;5060579;28;20307;-81
2022/03/07 10:27:41;;;;;;;12.00;11.00;;;;;;;3.18;68.24;101693.16;5058332;28;20225;-81
2022/03/07 10:30:11;;;;;;;10.10;9.20;;;;;;;3.20;67.73;101708.72;5058610;28;20205;-81
2022/03/07 10:32:38;;;;;;;9.73;8.83;;;;;;;3.08;66.68;101741.00;5058129;28;20203;-82
2022/03/07 10:35:05;;;;;;;11.30;10.30;;;;;;;3.14;67.19;101732.59;5057530;28;20206;-80
2022/03/07 10:37:35;;;;;;;12.87;11.43;;;;;;;3.17;68.48;101715.53;5056503;28;20290;-81
2022/03/07 10:40:02;;;;;;;11.33;10.23;;;;;;;3.27;67.21;101721.84;5057183;28;20818;-81
2022/03/07 10:42:28;;;;;;;12.37;10.40;;;;;;;3.41;67.07;101744.63;5057593;28;20219;-82
2022/03/07 10:45:03;;;;;;;12.27;10.27;;;;;;;3.52;66.06;101764.78;5057329;28;20214;-81
2022/03/07 10:47:30;;;;;;;11.53;10.03;;;;;;;3.52;63.79;101793.16;5040726;28;20661;-81
2022/03/07 10:49:58;;;;;;;10.57;9.57;;;;;;;3.56;64.43;101814.81;5050572;28;20224;-81
2022/03/07 10:52:34;;;;;;;10.50;9.40;;;;;;;3.67;64.85;101800.53;5057887;28;20202;-82
2022/03/07 10:55:01;;;;;;;10.40;9.40;;;;;;;3.64;65.53;101796.97;5057032;28;20213;-82
2022/03/07 10:57:28;;;;;;;9.50;8.70;;;;;;;3.69;65.17;101798.88;5057462;28;20711;-82
2022/03/07 10:59:54;;;;;;;10.77;8.73;;;;;;;3.71;64.20;101815.28;5057520;28;20196;-81
2022/03/07 11:02:21;;;;;;;8.63;7.70;;;;;;;3.74;62.65;101855.81;5057058;28;20210;-81
2022/03/07 11:04:49;;;;;;;8.00;7.20;;;;;;;3.90;62.99;101872.69;5057096;28;20205;-81
2022/03/07 11:07:15;;;;;;;7.63;6.93;;;;;;;3.91;60.88;101908.91;5057384;28;20607;-81
2022/03/07 11:09:43;;;;;;;6.93;6.20;;;;;;;3.90;60.61;101955.34;5058194;28;20288;-81
2022/03/07 11:12:14;;;;;;;6.57;6.07;;;;;;;3.88;59.81;101973.38;5057205;28;20559;-82
2022/03/07 11:14:42;;;;;;;7.93;7.20;;;;;;;3.89;59.91;101993.22;5056319;28;20212;-81
2022/03/07 11:17:13;;;;;;;11.57;7.80;;;;;;;4.08;61.12;101955.94;5050969;28;20258;-81
2022/03/07 11:19:41;;;;;;;8.13;7.43;;;;;;;4.26;61.15;101927.22;5038909;28;20205;-82
2022/03/07 11:22:08;;;;;;;8.50;7.77;;;;;;;4.33;61.28;101925.69;5058944;28;20296;-80
2022/03/07 11:24:36;;;;;;;8.20;7.50;;;;;;;4.25;60.63;101924.59;5056780;28;20205;-80
2022/03/07 11:27:03;;;;;;;7.47;6.63;;;;;;;4.09;60.82;101942.19;5056327;28;20238;-81